KWLD/WLD METAR and TAF weather

Enter ICAO airport designator
Station Type Date Time Source
KWLD METAR 2020/01/20 18:54 UTC NOAA

KWLD 201854Z AUTO 08005KT 10SM CLR 01/M09 A3055 RMK AO2 SLP359 T00061094


Station Type Date Time Source
KWLD Decoded METAR 2020/01/20 18:54 UTC NOAA

STROTHER FIELD, KS, United States (KWLD) 37-10N 97-02W 350M
Jan 20, 2020 - 01:54 PM EST / 2020.01.20 1854 UTC
Wind: from the E (080 degrees) at 6 MPH (5 KT):0
Visibility: 10 mile(s):0
Sky conditions: clear
Temperature: 33.1 F (0.6 C)
Windchill: 28 F (-2 C):1
Dew Point: 15.1 F (-9.4 C)
Relative Humidity: 47%
Pressure (altimeter): 30.55 in. Hg (1034 hPa)
ob: KWLD 201854Z AUTO 08005KT 10SM CLR 01/M09 A3055 RMK AO2 SLP359 T00061094
cycle: 19

Station Type Date Time Source
KWLD TAF UTC NOAA

Error!

Example: see airport list